createdAt,value
2018-12-21T00:00:32.508Z,0.60
2018-12-21T00:03:00.710Z,0.60
2018-12-21T00:05:28.882Z,0.50
2018-12-21T00:07:58.666Z,0.60
2018-12-21T00:10:27.197Z,0.60
2018-12-21T00:12:56.406Z,0.70
2018-12-21T00:15:24.584Z,0.70
2018-12-21T00:17:52.783Z,0.70
2018-12-21T00:20:20.955Z,0.70
2018-12-21T00:22:49.140Z,0.70
2018-12-21T00:25:17.353Z,0.80
2018-12-21T00:27:45.522Z,0.80
2018-12-21T00:30:15.898Z,0.80
2018-12-21T00:32:49.716Z,0.80
2018-12-21T00:35:23.434Z,0.80
2018-12-21T00:37:57.312Z,0.80
2018-12-21T00:40:31.076Z,0.80
2018-12-21T00:43:04.878Z,0.80
2018-12-21T00:45:35.076Z,0.80
2018-12-21T00:48:03.260Z,0.80
2018-12-21T00:50:31.478Z,0.70
2018-12-21T00:52:59.779Z,0.80
2018-12-21T00:55:27.958Z,0.80
2018-12-21T00:57:56.185Z,0.80
2018-12-21T01:00:25.521Z,0.80
2018-12-21T01:02:53.700Z,0.80
2018-12-21T01:05:22.041Z,0.80
2018-12-21T01:07:50.316Z,0.80
2018-12-21T01:10:18.752Z,0.80
2018-12-21T01:12:46.948Z,0.80
2018-12-21T01:15:15.128Z,0.80
2018-12-21T01:17:43.306Z,0.80
2018-12-21T01:20:11.548Z,0.80
2018-12-21T01:22:39.736Z,0.80
2018-12-21T01:25:07.907Z,0.70
2018-12-21T01:27:36.147Z,0.70
2018-12-21T01:30:05.305Z,0.80
2018-12-21T01:32:33.481Z,0.80
2018-12-21T01:35:01.684Z,0.80
2018-12-21T01:37:29.861Z,0.80
2018-12-21T01:39:58.040Z,0.80
2018-12-21T01:42:26.249Z,0.70
2018-12-21T01:44:54.420Z,0.70
2018-12-21T01:47:22.672Z,0.70
2018-12-21T01:49:50.870Z,0.80
2018-12-21T01:52:19.038Z,0.80
2018-12-21T01:54:47.217Z,0.80
2018-12-21T01:57:15.403Z,0.70
2018-12-21T01:59:43.584Z,0.80
2018-12-21T02:02:11.753Z,0.80
2018-12-21T02:04:39.944Z,0.70
2018-12-21T02:07:08.113Z,0.70
2018-12-21T02:09:36.279Z,0.70
2018-12-21T02:12:04.545Z,0.70
2018-12-21T02:14:32.802Z,0.70
2018-12-21T02:17:00.972Z,0.70
2018-12-21T02:19:29.183Z,0.70
2018-12-21T02:21:57.357Z,0.60
2018-12-21T02:24:25.534Z,0.60
2018-12-21T02:26:53.720Z,0.60
2018-12-21T02:29:21.900Z,0.60
2018-12-21T02:31:50.280Z,0.50
2018-12-21T02:34:18.480Z,0.50
2018-12-21T02:36:46.656Z,0.50
2018-12-21T02:39:14.920Z,0.40
2018-12-21T02:41:43.241Z,0.30
2018-12-21T02:44:11.441Z,0.20
2018-12-21T02:46:39.610Z,0.10
2018-12-21T02:49:07.816Z,0.00
2018-12-21T02:51:36.011Z,0.00
2018-12-21T02:54:04.202Z,-0.10
2018-12-21T02:56:32.420Z,-0.10
2018-12-21T02:59:00.607Z,0.00
2018-12-21T03:01:28.885Z,0.00
2018-12-21T03:03:57.141Z,0.10
2018-12-21T03:06:25.514Z,0.10
2018-12-21T03:08:53.706Z,0.10
2018-12-21T03:11:22.618Z,0.20
2018-12-21T03:13:50.799Z,0.20
2018-12-21T03:16:19.001Z,0.20
2018-12-21T03:18:48.974Z,0.20
2018-12-21T03:21:17.404Z,0.20
2018-12-21T03:23:45.573Z,0.20
2018-12-21T03:26:13.769Z,0.20
2018-12-21T03:28:41.947Z,0.20
2018-12-21T03:31:10.326Z,0.00
2018-12-21T03:33:38.544Z,0.00
2018-12-21T03:36:06.752Z,-0.10
2018-12-21T03:38:34.946Z,-0.20
2018-12-21T03:41:03.331Z,-0.20
2018-12-21T03:43:31.816Z,-0.20
2018-12-21T03:46:00.011Z,-0.30
2018-12-21T03:48:28.215Z,-0.30
2018-12-21T03:50:56.509Z,-0.30
2018-12-21T03:53:24.686Z,-0.30
2018-12-21T03:55:52.921Z,-0.30
2018-12-21T03:58:21.130Z,-0.30
2018-12-21T04:00:49.314Z,-0.30
2018-12-21T04:03:17.518Z,-0.30
2018-12-21T04:05:45.704Z,-0.40
2018-12-21T04:08:13.883Z,-0.40
2018-12-21T04:10:42.175Z,-0.40
2018-12-21T04:13:10.356Z,-0.40
2018-12-21T04:15:38.688Z,-0.40
2018-12-21T04:18:06.893Z,-0.40
2018-12-21T04:20:35.086Z,-0.40
2018-12-21T04:23:03.288Z,-0.30
2018-12-21T04:25:31.520Z,-0.30
2018-12-21T04:27:59.757Z,-0.30
2018-12-21T04:30:27.939Z,-0.40
2018-12-21T04:32:56.143Z,-0.40
2018-12-21T04:35:24.325Z,-0.40
2018-12-21T04:37:52.552Z,-0.40
2018-12-21T04:40:20.769Z,-0.40
2018-12-21T04:42:48.939Z,-0.30
2018-12-21T04:45:17.246Z,-0.40
2018-12-21T04:47:45.464Z,-0.40
2018-12-21T04:50:13.647Z,-0.50
2018-12-21T04:52:43.446Z,-0.60
2018-12-21T04:55:12.114Z,-0.70
2018-12-21T04:57:40.295Z,-0.70
2018-12-21T05:00:08.476Z,-0.80
2018-12-21T05:02:36.792Z,-0.70
2018-12-21T05:05:05.106Z,-0.70
2018-12-21T05:07:33.299Z,-0.70
2018-12-21T05:10:01.549Z,-0.70
2018-12-21T05:12:29.883Z,-0.70
2018-12-21T05:14:58.227Z,-0.60
2018-12-21T05:17:26.440Z,-0.60
2018-12-21T05:19:54.722Z,-0.70
2018-12-21T05:22:22.910Z,-0.70
2018-12-21T05:24:51.127Z,-0.70
2018-12-21T05:27:19.315Z,-0.70
2018-12-21T05:29:47.489Z,-0.80
2018-12-21T05:32:15.681Z,-0.80
2018-12-21T05:34:43.858Z,-0.70
2018-12-21T05:37:12.035Z,-0.70
2018-12-21T05:39:40.257Z,-0.70
2018-12-21T05:42:08.444Z,-0.70
2018-12-21T05:44:36.661Z,-0.80
2018-12-21T05:47:05.028Z,-0.90
2018-12-21T05:49:33.212Z,-0.90
2018-12-21T05:52:01.394Z,-1.00
2018-12-21T05:54:29.602Z,-1.00
2018-12-21T05:56:57.791Z,-0.90
2018-12-21T05:59:25.968Z,-0.90
2018-12-21T06:01:54.159Z,-0.90
2018-12-21T06:04:22.411Z,-1.00
2018-12-21T06:06:50.596Z,-1.00
2018-12-21T06:09:18.789Z,-1.00
2018-12-21T06:11:46.980Z,-1.00
2018-12-21T06:14:15.160Z,-0.90
2018-12-21T06:16:43.364Z,-0.90
2018-12-21T06:19:12.374Z,-0.80
2018-12-21T06:21:40.805Z,-0.80
2018-12-21T06:24:09.005Z,-0.80
2018-12-21T06:26:37.252Z,-0.80
2018-12-21T06:29:05.535Z,-0.80
2018-12-21T06:31:33.793Z,-0.80
2018-12-21T06:34:01.986Z,-0.80
2018-12-21T06:36:30.173Z,-0.90
2018-12-21T06:38:58.503Z,-1.00
2018-12-21T06:41:26.672Z,-1.00
2018-12-21T06:43:54.848Z,-0.90
2018-12-21T06:46:23.057Z,-0.90
2018-12-21T06:48:51.230Z,-0.90
2018-12-21T06:51:19.412Z,-0.80
2018-12-21T06:53:47.677Z,-0.80
2018-12-21T06:56:15.935Z,-0.80
2018-12-21T06:58:44.118Z,-0.80
2018-12-21T07:01:12.317Z,-0.70
2018-12-21T07:03:40.509Z,-0.70
2018-12-21T07:06:08.808Z,-0.60
2018-12-21T07:08:37.016Z,-0.60
2018-12-21T07:11:05.194Z,-0.60
2018-12-21T07:13:33.368Z,-0.50
2018-12-21T07:16:01.687Z,-0.50
2018-12-21T07:18:29.876Z,-0.50
2018-12-21T07:20:58.061Z,-0.40
2018-12-21T07:23:27.273Z,-0.40
2018-12-21T07:25:56.484Z,-0.30
2018-12-21T07:28:24.657Z,-0.30
2018-12-21T07:30:52.870Z,-0.10
2018-12-21T07:33:21.056Z,-0.10
2018-12-21T07:35:49.220Z,0.00
2018-12-21T07:38:17.436Z,0.00
2018-12-21T07:40:45.609Z,0.00
2018-12-21T07:43:13.780Z,0.10
2018-12-21T07:45:41.977Z,0.00
2018-12-21T07:48:10.153Z,0.00
2018-12-21T07:50:38.329Z,0.00
2018-12-21T07:53:06.562Z,-0.10
2018-12-21T07:55:34.736Z,-0.10
2018-12-21T07:58:02.908Z,-0.10
2018-12-21T08:00:31.191Z,0.00
2018-12-21T08:02:59.392Z,0.00
2018-12-21T08:05:27.568Z,0.10
2018-12-21T08:07:55.763Z,0.10
2018-12-21T08:10:23.964Z,0.00
2018-12-21T08:12:52.152Z,0.10
2018-12-21T08:15:20.342Z,0.10
2018-12-21T08:17:48.513Z,0.20
2018-12-21T08:20:16.683Z,0.50
2018-12-21T08:22:44.884Z,0.70
2018-12-21T08:25:13.074Z,0.80
2018-12-21T08:27:41.245Z,0.70
2018-12-21T08:30:09.979Z,0.80
2018-12-21T08:32:38.151Z,0.80
2018-12-21T08:35:06.326Z,0.90
2018-12-21T08:37:34.529Z,0.90
2018-12-21T08:40:02.717Z,1.00
2018-12-21T08:42:30.909Z,1.10
2018-12-21T08:44:59.112Z,1.10
2018-12-21T08:47:27.284Z,1.10
2018-12-21T08:49:55.456Z,1.00
2018-12-21T08:52:23.647Z,1.00
2018-12-21T08:54:51.817Z,1.10
2018-12-21T08:57:20.169Z,1.20
2018-12-21T08:59:48.358Z,1.20
2018-12-21T09:02:16.549Z,1.10
2018-12-21T09:04:44.718Z,1.10
2018-12-21T09:07:12.927Z,1.10
2018-12-21T09:09:41.533Z,1.20
2018-12-21T09:12:09.764Z,1.30
2018-12-21T09:14:38.031Z,1.50
2018-12-21T09:17:06.274Z,1.60
2018-12-21T09:19:34.449Z,1.70
2018-12-21T09:22:02.647Z,1.90
2018-12-21T09:24:30.814Z,2.00
2018-12-21T09:26:58.996Z,2.00
2018-12-21T09:29:27.187Z,2.10
2018-12-21T09:31:55.362Z,2.30
2018-12-21T09:34:23.529Z,2.50
2018-12-21T09:36:51.780Z,2.50
2018-12-21T09:39:19.960Z,2.70
2018-12-21T09:41:48.140Z,2.80
2018-12-21T09:44:16.354Z,2.80
2018-12-21T09:46:44.532Z,2.70
2018-12-21T09:49:12.708Z,2.70
2018-12-21T09:51:40.923Z,2.70
2018-12-21T09:54:10.079Z,2.70
2018-12-21T09:56:38.726Z,2.70
2018-12-21T09:59:08.025Z,2.90
2018-12-21T10:01:36.471Z,2.90
2018-12-21T10:04:04.652Z,2.80
2018-12-21T10:06:32.850Z,2.90
2018-12-21T10:09:01.017Z,3.10
2018-12-21T10:11:29.187Z,3.20
2018-12-21T10:13:57.404Z,3.20
2018-12-21T10:16:25.660Z,3.20
2018-12-21T10:18:53.842Z,3.10
2018-12-21T10:21:22.077Z,2.90
2018-12-21T10:23:50.267Z,2.90
2018-12-21T10:26:18.440Z,2.90
2018-12-21T10:31:21.080Z,2.90
2018-12-21T10:33:49.304Z,2.80
2018-12-21T10:36:17.472Z,2.80
2018-12-21T10:38:45.661Z,2.70
2018-12-21T10:41:13.854Z,2.70
2018-12-21T10:43:42.075Z,2.70
2018-12-21T10:46:10.321Z,2.60
2018-12-21T10:48:38.513Z,2.60
2018-12-21T10:51:06.688Z,2.70
2018-12-21T10:53:34.856Z,2.80
2018-12-21T10:56:03.046Z,2.80
2018-12-21T10:58:31.331Z,2.80
2018-12-21T11:00:59.538Z,2.80
2018-12-21T11:03:27.837Z,2.80
2018-12-21T11:05:56.025Z,2.90
2018-12-21T11:08:24.432Z,2.90
2018-12-21T11:10:52.638Z,2.90
2018-12-21T11:13:20.811Z,3.00
2018-12-21T11:15:48.988Z,3.10
2018-12-21T11:18:17.187Z,3.10
2018-12-21T11:20:45.364Z,3.10
2018-12-21T11:23:13.538Z,3.00
2018-12-21T11:25:41.732Z,3.00
2018-12-21T11:28:09.908Z,3.00
2018-12-21T11:30:38.089Z,2.90
2018-12-21T11:33:06.374Z,2.90
2018-12-21T11:35:34.574Z,2.90
2018-12-21T11:38:02.743Z,2.90
2018-12-21T11:40:31.052Z,2.90
2018-12-21T11:42:59.226Z,2.80
2018-12-21T11:45:27.394Z,2.80
2018-12-21T11:47:55.593Z,2.80
2018-12-21T11:50:23.789Z,2.90
2018-12-21T11:52:51.964Z,3.00
2018-12-21T11:55:20.168Z,3.10
2018-12-21T11:57:48.358Z,3.10
2018-12-21T12:00:16.625Z,3.10
2018-12-21T12:02:44.934Z,3.10
2018-12-21T12:05:13.107Z,3.10
2018-12-21T12:07:41.378Z,3.10
2018-12-21T12:10:09.573Z,3.10
2018-12-21T12:12:39.331Z,3.10
2018-12-21T12:15:07.729Z,3.10
2018-12-21T12:17:35.931Z,3.10
2018-12-21T12:20:05.904Z,3.10
2018-12-21T12:22:34.094Z,3.10
2018-12-21T12:25:02.286Z,3.00
2018-12-21T12:27:30.462Z,2.90
2018-12-21T12:29:58.635Z,2.80
2018-12-21T12:32:26.836Z,2.70
2018-12-21T12:34:54.996Z,2.70
2018-12-21T12:37:23.172Z,2.70
2018-12-21T12:39:51.364Z,2.70
2018-12-21T12:42:19.642Z,2.70
2018-12-21T12:44:47.825Z,2.70
2018-12-21T12:47:16.426Z,2.60
2018-12-21T12:49:44.628Z,2.60
2018-12-21T12:52:12.802Z,2.60
2018-12-21T12:54:41.108Z,2.60
2018-12-21T12:57:09.292Z,2.60
2018-12-21T12:59:37.465Z,2.60
2018-12-21T13:04:50.294Z,2.50
2018-12-21T13:07:18.477Z,2.50
2018-12-21T13:09:46.644Z,2.40
2018-12-21T13:12:14.837Z,2.40
2018-12-21T13:14:43.085Z,2.40
2018-12-21T13:17:11.347Z,2.30
2018-12-21T13:19:39.527Z,2.30
2018-12-21T13:22:07.715Z,2.30
2018-12-21T13:24:35.887Z,2.20
2018-12-21T13:27:04.058Z,2.20
2018-12-21T13:29:32.240Z,2.00
2018-12-21T13:32:00.415Z,1.90
2018-12-21T13:34:28.593Z,2.00
2018-12-21T13:36:56.805Z,2.00
2018-12-21T13:39:24.979Z,2.00
2018-12-21T13:41:53.159Z,2.00
2018-12-21T13:44:21.362Z,2.10
2018-12-21T13:46:49.565Z,2.20
2018-12-21T13:49:17.726Z,2.30
2018-12-21T13:51:45.932Z,2.40
2018-12-21T13:54:14.205Z,2.40
2018-12-21T13:56:43.142Z,2.50
2018-12-21T13:59:11.461Z,2.50
2018-12-21T14:01:39.648Z,2.50
2018-12-21T14:04:07.829Z,2.50
2018-12-21T14:06:36.024Z,2.60
2018-12-21T14:09:06.299Z,2.60
2018-12-21T14:11:34.575Z,2.60
2018-12-21T14:14:02.777Z,2.60
2018-12-21T14:16:30.973Z,2.70
2018-12-21T14:18:59.152Z,2.50
2018-12-21T14:21:27.347Z,2.40
2018-12-21T14:23:55.527Z,2.50
2018-12-21T14:26:23.709Z,2.40
2018-12-21T14:28:51.900Z,2.50
2018-12-21T14:31:20.132Z,2.40
2018-12-21T14:33:48.300Z,2.50
2018-12-21T14:36:16.592Z,2.50
2018-12-21T14:38:44.883Z,2.50
2018-12-21T14:41:13.057Z,2.50
2018-12-21T14:43:41.256Z,2.50
2018-12-21T14:46:09.916Z,2.40
2018-12-21T14:48:38.084Z,2.40
2018-12-21T14:51:06.282Z,2.30
2018-12-21T14:53:34.565Z,2.30
2018-12-21T14:56:02.842Z,2.30
2018-12-21T14:58:31.032Z,2.20
2018-12-21T15:00:59.201Z,2.20
2018-12-21T15:03:27.385Z,2.20
2018-12-21T15:05:55.601Z,2.20
2018-12-21T15:08:23.776Z,2.10
2018-12-21T15:10:51.968Z,2.20
2018-12-21T15:13:20.163Z,2.10
2018-12-21T15:15:48.339Z,2.10
2018-12-21T15:18:16.522Z,2.10
2018-12-21T15:20:44.731Z,2.10
2018-12-21T15:23:13.116Z,2.10
2018-12-21T15:25:46.032Z,2.10
2018-12-21T15:28:11.711Z,2.10
2018-12-21T15:30:39.906Z,2.10
2018-12-21T15:33:08.080Z,2.10
2018-12-21T15:35:36.317Z,2.10
2018-12-21T15:38:04.495Z,2.10
2018-12-21T15:40:32.660Z,2.00
2018-12-21T15:43:00.877Z,2.10
2018-12-21T15:45:29.052Z,2.10
2018-12-21T15:47:57.241Z,2.10
2018-12-21T15:50:25.435Z,2.10
2018-12-21T15:52:53.615Z,2.10
2018-12-21T15:55:21.811Z,2.10
2018-12-21T15:57:50.012Z,2.10
2018-12-21T16:00:18.185Z,2.10
2018-12-21T16:02:46.617Z,2.10
2018-12-21T16:05:14.804Z,2.10
2018-12-21T16:07:42.982Z,2.10
2018-12-21T16:10:11.155Z,2.10
2018-12-21T16:12:39.354Z,2.10
2018-12-21T16:15:07.527Z,2.10
2018-12-21T16:17:35.701Z,2.10
2018-12-21T16:20:08.488Z,2.10
2018-12-21T16:22:42.304Z,2.00
2018-12-21T16:25:06.871Z,2.00
2018-12-21T16:27:35.073Z,2.10
2018-12-21T16:30:03.716Z,2.10
2018-12-21T16:32:31.948Z,2.10
2018-12-21T16:35:00.180Z,2.10
2018-12-21T16:37:28.362Z,2.10
2018-12-21T16:39:56.549Z,2.10
2018-12-21T16:42:25.222Z,2.10
2018-12-21T16:44:53.466Z,2.10
2018-12-21T16:47:21.633Z,2.20
2018-12-21T16:49:49.827Z,2.10
2018-12-21T16:52:18.021Z,2.20
2018-12-21T16:54:46.316Z,2.10
2018-12-21T16:57:14.519Z,2.20
2018-12-21T16:59:42.721Z,2.10
2018-12-21T17:02:10.992Z,2.10
2018-12-21T17:04:39.181Z,2.10
2018-12-21T17:07:07.581Z,2.10
2018-12-21T17:09:35.772Z,2.20
2018-12-21T17:12:03.968Z,2.20
2018-12-21T17:14:32.246Z,2.20
2018-12-21T17:17:00.514Z,2.20
2018-12-21T17:19:28.728Z,2.20
2018-12-21T17:21:56.907Z,2.20
2018-12-21T17:24:25.076Z,2.20
2018-12-21T17:26:53.324Z,2.20
2018-12-21T17:29:21.498Z,2.20
2018-12-21T17:31:49.677Z,2.20
2018-12-21T17:34:17.981Z,2.20
2018-12-21T17:36:46.151Z,2.20
2018-12-21T17:39:14.344Z,2.30
2018-12-21T17:41:42.571Z,2.30
2018-12-21T17:44:10.761Z,2.40
2018-12-21T17:46:38.934Z,2.40
2018-12-21T17:49:13.012Z,2.40
2018-12-21T17:51:41.191Z,2.40
2018-12-21T17:54:09.402Z,2.40
2018-12-21T17:56:37.605Z,2.50
2018-12-21T17:59:05.798Z,2.50
2018-12-21T18:01:34.223Z,2.40
2018-12-21T18:04:03.455Z,2.40
2018-12-21T18:06:31.631Z,2.40
2018-12-21T18:08:59.829Z,2.40
2018-12-21T18:11:28.029Z,2.30
2018-12-21T18:13:56.197Z,2.30
2018-12-21T18:16:24.389Z,2.40
2018-12-21T18:18:52.590Z,2.30
2018-12-21T18:21:20.759Z,2.30
2018-12-21T18:23:49.039Z,2.40
2018-12-21T18:26:17.243Z,2.50
2018-12-21T18:28:45.421Z,2.50
2018-12-21T18:31:15.178Z,2.60
2018-12-21T18:33:44.256Z,2.60
2018-12-21T18:36:12.437Z,2.60
2018-12-21T18:38:40.614Z,2.60
2018-12-21T18:41:08.805Z,2.60
2018-12-21T18:43:36.978Z,2.60
2018-12-21T18:46:05.149Z,2.50
2018-12-21T18:48:33.350Z,2.50
2018-12-21T18:51:01.627Z,2.60
2018-12-21T18:53:29.904Z,2.60
2018-12-21T18:55:58.145Z,2.60
2018-12-21T18:58:26.342Z,2.80
2018-12-21T19:00:54.735Z,2.90
2018-12-21T19:03:22.936Z,2.90
2018-12-21T19:05:51.286Z,2.90
2018-12-21T19:08:19.464Z,2.80
2018-12-21T19:10:47.738Z,2.60
2018-12-21T19:13:15.916Z,2.50
2018-12-21T19:15:44.110Z,2.40
2018-12-21T19:18:12.302Z,2.30
2018-12-21T19:20:40.526Z,2.30
2018-12-21T19:23:08.707Z,2.20
2018-12-21T19:25:36.905Z,2.30
2018-12-21T19:28:05.068Z,2.20
2018-12-21T19:30:33.329Z,2.20
2018-12-21T19:33:01.610Z,2.20
2018-12-21T19:35:30.140Z,2.20
2018-12-21T19:37:58.363Z,2.20
2018-12-21T19:40:26.574Z,2.20
2018-12-21T19:42:54.749Z,2.20
2018-12-21T19:45:22.969Z,2.10
2018-12-21T19:47:51.180Z,2.10
2018-12-21T19:50:19.369Z,2.10
2018-12-21T19:52:47.547Z,2.10
2018-12-21T19:55:22.436Z,2.00
2018-12-21T19:57:50.619Z,2.00
2018-12-21T20:00:18.804Z,2.00
2018-12-21T20:02:47.003Z,2.10
2018-12-21T20:05:15.175Z,2.00
2018-12-21T20:07:43.375Z,2.00
2018-12-21T20:10:12.247Z,2.10
2018-12-21T20:12:40.417Z,2.00
2018-12-21T20:15:08.863Z,2.00
2018-12-21T20:17:37.070Z,2.10
2018-12-21T20:20:08.534Z,2.10
2018-12-21T20:22:36.744Z,2.10
2018-12-21T20:25:07.156Z,2.10
2018-12-21T20:27:35.329Z,2.20
2018-12-21T20:30:06.197Z,2.20
2018-12-21T20:32:34.383Z,2.20
2018-12-21T20:35:02.599Z,2.20
2018-12-21T20:37:30.813Z,2.20
2018-12-21T20:39:59.227Z,2.20
